Weather Top, Arizona (BMGR) Weather observations

Data are for 10 minute period ending at time listed.
 Day   Time   Solar   Ave.   Ave.  Ave.  Vector  Max.   Total    
  of    of     Rad.   Air    Rel.  Wind   Wind   Wind  Precip.   
Year   Day            Temp.  Hum.  Speed  Dir.   Gust            
2026   (MST)  Kw/m2    F      %     mph   deg.    mph    in.     
-----------------------------------------------------------------
 123   16:35   0.51   82.9    17   13.0   200    24.4    0.00 
 123   16:40   0.49   82.3    17   12.4   198    22.8    0.00 
 123   16:45   0.48   82.8    17   12.8   195    18.9    0.00 
 123   16:50   0.46   82.1    18   12.1   203    21.6    0.00 
 123   16:55   0.43   82.1    18   11.4   199    18.9    0.00 
 123   17:00   0.42   82.7    18   12.4   174    18.9    0.00 
 123   17:05   0.38   82.9    18   11.3   194    19.4    0.00 
 123   17:10   0.28   81.6    19   12.7   194    19.4    0.00 
 123   17:15   0.24   81.1    19   14.6   204    22.2    0.00 
 123   17:20   0.35   81.0    19   11.3   198    23.3    0.00 
 123   17:25   0.36   81.7    19   14.0   184    21.6    0.00 
 123   17:30   0.34   80.2    20   14.5   200    22.8    0.00 
 123   17:35   0.31   80.3    20   12.9   198    21.6    0.00 
 123   17:40   0.29   80.7    20   12.0   195    19.4    0.00 
 123   17:45   0.27   80.4    21   12.1   189    20.5    0.00 
 123   17:50   0.23   80.6    20   12.5   180    19.4    0.00 
 123   17:55   0.23   80.2    21   13.4   201    21.1    0.00 
 123   18:00   0.16   79.2    22   13.1   205    23.9    0.00 
 123   18:05   0.11   78.8    22   12.8   202    21.1    0.00 
 123   18:10   0.11   78.2    23   12.2   200    22.2    0.00 
 123   18:15   0.09   78.3    23   12.2   185    18.3    0.00 
 123   18:20   0.07   78.0    24   11.1   184    20.5    0.00 
 123   18:25   0.07   77.1    25   13.2   198    22.8    0.00 
 123   18:30   0.06   76.8    25   10.7   188    17.7    0.00 
 123   18:35   0.05   76.6    24   12.5   206    21.1    0.00 
 123   18:40   0.04   76.6    24   10.0   192    18.9    0.00 
 123   18:45   0.03   76.4    23   11.4   198    16.6    0.00 
 123   18:50   0.03   75.9    23   12.7   190    25.6    0.00 
 123   18:55   0.02   75.7    23   11.5   189    18.9    0.00 
 123   19:00   0.01   75.2    24   12.7   183    20.5    0.00 
 123   19:05   0.01   74.9    24   12.3   184    22.8    0.00 
 123   19:10   0.01   74.6    26   11.2   187    18.9    0.00 
 123   19:15   0.00   74.4    26    9.9   194    17.7    0.00 
 123   19:20   0.00   74.2    27    9.7   206    17.2    0.00 
 123   19:25   0.00   73.7    28    9.8   198    17.7    0.00 
 123   19:30   0.00   73.3    28    9.7   204    18.9    0.00 
 123   19:35   0.00   72.9    28    8.6   209    14.4    0.00 
 123   19:40   0.00   72.6    29    8.9   192    13.8    0.00 
 123   19:45   0.00   72.4    29    8.3   201    14.4    0.00 
 123   19:50   0.00   72.2    30    8.4   205    16.6    0.00 
 123   19:55   0.00   72.1    30    8.6   201    13.8    0.00 
 123   20:00   0.00   72.0    30    7.2   203    13.3    0.00 
 123   20:05   0.00   71.9    30    8.4   185    12.7    0.00 
 123   20:10   0.00   71.6    31    8.5   182    13.3    0.00 
 123   20:15   0.00   71.6    31    8.2   189    13.3    0.00 
 123   20:20   0.00   71.6    31    8.0   200    12.7    0.00 
 123   20:25   0.00   71.5    32    6.8   188    11.0    0.00 
 123   20:30   0.00   71.4    32    7.1   197    13.8    0.00 
 123   20:35   0.00   71.2    32    5.9   194     9.9    0.00 
 123   20:40   0.00   71.1    33    9.3   188    13.3    0.00 
 123   20:45   0.00   71.1    33    7.3   182    13.3    0.00 
 123   20:50   0.00   71.1    33    7.7   194    12.1    0.00 
 123   20:55   0.00   71.1    33    7.4   193    12.7    0.00 
 123   21:00   0.00   71.1    33    7.7   204    13.8    0.00 
 123   21:05   0.00   71.1    34   10.3   192    18.3    0.00 
 123   21:10   0.00   71.2    34    9.2   196    16.0    0.00 
 123   21:15   0.00   71.2    34   10.6   195    22.8    0.00 
 123   21:20   0.00   71.2    35   11.0   195    20.0    0.00 
 123   21:25   0.00   71.1    36   10.4   196    17.7    0.00 
 123   21:30   0.00   70.9    36   10.3   196    17.2    0.00 
 123   21:35   0.00   70.8    37    9.5   206    16.6    0.00 
 123   21:40   0.00   70.7    38   10.5   198    17.7    0.00 
 123   21:45   0.00   70.6    38    9.2   194    16.6    0.00 
 123   21:50   0.00   70.5    39    9.8   191    15.5    0.00 
 123   21:55   0.00   70.4    39   11.0   194    20.5    0.00 
 123   22:00   0.00   70.4    39   12.5   193    21.1    0.00 
 123   22:05   0.00   70.3    39   10.7   202    22.2    0.00 
 123   22:10   0.00   70.1    39    7.6   186    12.1    0.00 
 123   22:15   0.00   70.0    39    6.3   174    10.5    0.00 
 123   22:20   0.00   70.0    39    6.3   189    11.6    0.00 
 123   22:25   0.00   70.0    39    6.8   178    12.1    0.00 
 123   22:30   0.00   69.9    39    7.2   156    16.6    0.00 
 123   22:35   0.00   69.7    39    7.7   145    13.8    0.00 
 123   22:40   0.00   69.6    39    9.7   144    16.0    0.00 
 123   22:45   0.00   69.6    39   12.8   161    20.0    0.00 
 123   22:50   0.00   69.6    39   11.6   176    17.2    0.00 
 123   22:55   0.00   69.6    39    9.9   172    13.8    0.00 
 123   23:00   0.00   69.5    39    8.2   180    13.8    0.00 
 123   23:05   0.00   69.6    39    8.1   193    13.3    0.00 
 123   23:10   0.00   69.6    39    9.0   192    14.4    0.00 
 123   23:15   0.00   69.5    39    7.0   194    11.0    0.00 
 123   23:20   0.00   69.4    39    7.8   188    12.1    0.00 
 123   23:25   0.00   69.3    39    7.9   197    13.3    0.00 
 123   23:30   0.00   69.3    39    7.4   200    11.6    0.00 
 123   23:35   0.00   69.2    39    7.2   191    12.7    0.00 
 123   23:40   0.00   69.0    39    5.7   206     9.3    0.00 
 123   23:45   0.00   69.0    39    4.3   208     7.1    0.00 
 123   23:50   0.00   68.6    40    4.2   216     8.2    0.00 
 123   23:55   0.00   68.4    40    5.5   217     9.9    0.00 
 124    0:00   0.00   68.3    40    6.3   211     9.3    0.00 
 124    0:05   0.00   68.3    40    5.5   196     9.3    0.00 
 124    0:10   0.00   68.1    40    7.1   188    12.7    0.00 
 124    0:15   0.00   68.1    41    7.6   191    12.7    0.00 
 124    0:20   0.00   67.8    41    5.7   182     9.9    0.00 
 124    0:25   0.00   67.8    41    5.7   189     9.9    0.00 
 124    0:30   0.00   67.7    41    5.4   178     7.7    0.00 
 124    0:35   0.00   67.4    42    6.3   177    11.6    0.00 
 124    0:40   0.00   67.4    42    5.8   184    11.0    0.00 
 124    0:45   0.00   67.3    43    6.1   191    11.0    0.00 
 124    0:50   0.00   67.1    43    7.3   176    12.1    0.00 
 124    0:55   0.00   67.0    43    6.8   177     9.3    0.00 
 124    1:00   0.00   67.0    43    6.6   179     9.9    0.00 
 124    1:05   0.00   66.9    44    6.2   178    11.0    0.00 
 124    1:10   0.00   66.8    44    4.1   186     7.1    0.00 
 124    1:15   0.00   66.6    44    4.3   159     7.7    0.00 
 124    1:20   0.00   66.5    44    6.4   165    10.5    0.00 
 124    1:25   0.00   66.4    44    6.5   150    13.3    0.00 
 124    1:30   0.00   66.3    44    5.4   159     8.8    0.00 
 124    1:35   0.00   66.2    44    5.0   143     9.9    0.00 
 124    1:40   0.00   66.1    45    3.3   178     7.1    0.00 
 124    1:45   0.00   66.1    44    3.7   193     6.5    0.00 
 124    1:50   0.00   66.0    44    4.2   212     7.1    0.00 
 124    1:55   0.00   66.1    45    6.5   209     9.9    0.00 
 124    2:00   0.00   65.9    45    7.2   210    11.6    0.00 
 124    2:05   0.00   65.7    46    6.3   212     9.3    0.00 
 124    2:10   0.00   65.6    46    7.4   213    12.1    0.00 
 124    2:15   0.00   65.4    47    6.7   212    10.5    0.00 
 124    2:20   0.00   65.3    47    6.6   218    12.1    0.00 
 124    2:25   0.00   65.2    47    4.7   211     8.2    0.00 
 124    2:30   0.00   64.9    47    5.5   207     8.8    0.00 
 124    2:35   0.00   64.8    47    5.4   210     8.2    0.00 
 124    2:40   0.00   64.7    48    4.5   217     8.8    0.00 
 124    2:45   0.00   64.6    48    3.8   214     6.0    0.00 
 124    2:50   0.00   64.5    48    4.3   205     7.1    0.00 
 124    2:55   0.00   64.5    48    4.0   220     7.7    0.00 
 124    3:00   0.00   64.4    47    3.9   220     7.1    0.00 
 124    3:05   0.00   64.3    47    3.4   222     6.5    0.00 
 124    3:10   0.00   64.3    48    4.0   221     7.1    0.00 
 124    3:15   0.00   64.1    48    4.4   222     7.1    0.00 
 124    3:20   0.00   64.0    49    5.1   221     9.3    0.00 
 124    3:25   0.00   63.9    49    6.0   226     9.3    0.00 
 124    3:30   0.00   63.8    49    5.2   214     7.7    0.00 
 124    3:35   0.00   63.6    50    6.1   221    11.0    0.00 
 124    3:40   0.00   63.5    50    5.3   214     8.8    0.00 
 124    3:45   0.00   63.3    50    5.8   215     9.3    0.00 
 124    3:50   0.00   63.2    51    4.9   216     8.2    0.00 
 124    3:55   0.00   63.1    51    5.1   208     7.7    0.00 
 124    4:00   0.00   63.0    51    5.9   219     9.9    0.00 
 124    4:05   0.00   62.9    51    7.7   216    11.6    0.00 
 124    4:10   0.00   62.7    51    6.0   212     9.9    0.00 
 124    4:15   0.00   62.5    52    5.6   214     8.8    0.00 
 124    4:20   0.00   62.4    52    5.2   214     8.2    0.00 
 124    4:25   0.00   62.3    52    3.3   209     6.5    0.00 
 124    4:30   0.00   62.1    53    3.5   205     5.4    0.00 
 124    4:35   0.00   62.0    53    4.1   221     7.1    0.00 
 124    4:40   0.00   61.9    53    3.7   226     6.5    0.00 
 124    4:45   0.00   61.8    54    1.8   228     6.5    0.00 
 124    4:50   0.00   61.6    54    2.1   212     4.9    0.00 
 124    4:55   0.00   61.6    54    3.1   220     5.4    0.00 
 124    5:00   0.00   61.7    54    5.3   208     8.8    0.00 
 124    5:05   0.00   61.6    54    5.9   208    10.5    0.00 
 124    5:10   0.00   61.5    54    5.5   213     9.3    0.00 
 124    5:15   0.00   61.3    55    6.9   214    11.0    0.00 
 124    5:20   0.00   61.2    55    5.8   212     9.3    0.00 
 124    5:25   0.00   61.5    54    6.5   203    10.5    0.00 
 124    5:30   0.00   61.3    55    5.9   200     8.8    0.00 
 124    5:35   0.00   61.1    56    4.3   195     8.2    0.00 
 124    5:40   0.00   61.0    56    3.6   202     6.5    0.00 
 124    5:45   0.00   60.9    56    5.1   203     8.2    0.00 
 124    5:50   0.00   60.9    56    6.4   208     9.9    0.00 
 124    5:55   0.01   60.9    56    4.6   215     9.3    0.00 
 124    6:00   0.01   60.7    57    4.8   224     9.3    0.00 
 124    6:05   0.02   60.5    57    3.9   225     7.1    0.00 
 124    6:10   0.02   60.5    58    4.6   229     7.7    0.00 
 124    6:15   0.03   60.6    58    5.7   226     8.2    0.00 
 124    6:20   0.03   60.6    58    6.7   214    12.7    0.00 
 124    6:25   0.04   60.6    58    6.4   207     9.9    0.00 
 124    6:30   0.05   60.6    58    5.5   203    10.5    0.00 
 124    6:35   0.05   60.5    58    7.5   198    11.0    0.00 
 124    6:40   0.06   60.5    58    6.7   176    11.0    0.00 
 124    6:45   0.08   60.7    58    5.8   154     9.9    0.00 
 124    6:50   0.09   60.9    57    6.2   169    10.5    0.00 
 124    6:55   0.11   61.0    56    8.3   166    11.0    0.00 
 124    7:00   0.11   61.2    55    9.2   198    13.3    0.00 
 124    7:05   0.12   61.3    56    9.9   203    14.4    0.00 
 124    7:10   0.11   61.2    56   10.2   208    17.2    0.00 
 124    7:15   0.13   61.0    56    9.5   204    13.8    0.00 
 124    7:20   0.15   61.1    56    7.8   200    12.7    0.00 
 124    7:25   0.16   61.1    56    7.8   212    13.3    0.00 
 124    7:30   0.16   60.9    57    8.0   211    13.3    0.00 
 124    7:35   0.15   61.2    56    8.0   194    13.3    0.00 
 124    7:40   0.18   61.2    56    7.7   211    12.1    0.00 
 124    7:45   0.19   61.3    56    6.2   206    11.0    0.00 
 124    7:50   0.16   61.5    56    5.6   199     9.3    0.00 
 124    7:55   0.17   61.5    56    6.0   203     9.3    0.00 
 124    8:00   0.18   61.8    56    5.8   208     9.3    0.00 
 124    8:05   0.17   61.8    56    7.2   227     9.9    0.00 
 124    8:10   0.18   62.1    56    5.5   215     9.3    0.00 
 124    8:15   0.21   62.3    56    5.1   228     8.2    0.00 
 124    8:20   0.21   62.7    55    3.9   226     7.1    0.00 
 124    8:25   0.22   62.6    55    4.5   227     7.7    0.00 
 124    8:30   0.24   63.0    55    3.5   226     7.1    0.00 
 124    8:35   0.25   62.9    55    4.0   206     6.5    0.00 
 124    8:40   0.27   63.0    54    3.9   233     9.3    0.00 
 124    8:45   0.26   63.2    54    4.5   224     8.8    0.00 
 124    8:50   0.27   63.7    53    4.3   227     8.2    0.00 
 124    8:55   0.29   63.7    53    5.6   226     9.3    0.00 
 124    9:00   0.29   63.9    52    6.0   189     9.9    0.00 
 124    9:05   0.31   64.6    50    6.1   208    11.0    0.00 
 124    9:10   0.33   64.7    49    5.8   224     9.9    0.00 
 124    9:15   0.33   64.8    48    6.1   215     9.3    0.00 
 124    9:20   0.30   65.5    47    5.9   193    10.5    0.00 
 124    9:25   0.27   65.1    47    5.2   198     8.2    0.00 
 124    9:30   0.29   65.0    47    5.4   206    10.5    0.00 
 124    9:35   0.33   65.3    47    5.3   198     8.8    0.00 
 124    9:40   0.33   65.5    47    4.9   202     7.1    0.00 
 124    9:45   0.31   65.6    46    5.4   198     7.7    0.00 
 124    9:50   0.27   65.7    46    6.2   194     9.9    0.00 
 124    9:55   0.27   65.8    46    5.1   196     9.3    0.00 
 124   10:00   0.27   66.3    45    6.1   187     9.9    0.00 
 124   10:05   0.25   65.8    46    6.8   229    10.5    0.00 
 124   10:10   0.26   66.4    44    5.1   194     8.8    0.00 
 124   10:15   0.23   66.6    43    6.0   210    11.6    0.00 
 124   10:20   0.21   66.7    42    5.6   190     9.3    0.00 
 124   10:25   0.22   67.0    41    4.5   198     9.3    0.00 
 124   10:30   0.24   67.0    40    6.2   192    12.1    0.00 
 124   10:35   0.26   66.5    41    6.6   210    10.5    0.00 
 124   10:40   0.32   66.7    40    7.2   216    12.7    0.00 
 124   10:45   0.38   67.0    40    7.0   218    11.0    0.00 
 124   10:50   0.37   67.1    40    9.1   225    12.7    0.00 
 124   10:55   0.38   66.9    41    8.1   212    13.3    0.00 
 124   11:00   0.33   66.8    42    7.5   215    12.7    0.00 
 124   11:05   0.39   66.9    42    7.3   196    12.1    0.00 
 124   11:10   0.43   67.3    42    6.9   208    14.9    0.00 
 124   11:15   0.42   67.3    42    6.6   212    11.0    0.00 
 124   11:20   0.30   67.1    42    8.4   204    13.3    0.00 
 124   11:25   0.27   66.8    42    9.2   218    15.5    0.00 
 124   11:30   0.27   66.3    42    7.5   220    12.7    0.00 
 124   11:35   0.28   66.9    40    7.7   214    12.7    0.00 
 124   11:40   0.30   67.6    38    8.3   203    12.7    0.00 
 124   11:45   0.29   67.5    38    7.1   197    11.0    0.00 
 124   11:50   0.27   67.9    38    8.1   188    12.7    0.00 
 124   11:55   0.27   67.5    38    7.5   217    12.7    0.00 
 124   12:00   0.34   67.4    39    8.2   210    14.4    0.00 
 124   12:05   0.33   67.2    39    7.8   210    13.3    0.00 
 124   12:10   0.33   68.0    37    6.0   194    11.0    0.00 
 124   12:15   0.29   67.9    37    7.5   228    12.1    0.00 
 124   12:20   0.25   67.3    37    7.5   214    13.3    0.00 
 124   12:25   0.23   67.7    36    7.3   205    13.3    0.00 
 124   12:30   0.26   67.6    37    7.0   223    10.5    0.00 
 124   12:35   0.30   68.3    36    5.2   188     9.3    0.00 
 124   12:40   0.31   69.0    35    5.9   195     9.9    0.00 
 124   12:45   0.30   69.0    34    8.0   210    12.7    0.00 
 124   12:50   0.28   68.2    35   10.4   217    16.0    0.00 
 124   12:55   0.27   69.2    36    5.5   138    11.6    0.00 
 124   13:00   0.29   68.8    38    7.2   205    14.4    0.00 
 124   13:05   0.35   69.3    38    5.1    95    11.0    0.00 
 124   13:10   0.30   69.5    38    5.6   198    11.6    0.00 
 124   13:15   0.24   69.0    38    4.7   156    11.6    0.00 
 124   13:20   0.21   69.0    39    3.1    61     6.5    0.00 
 124   13:25   0.22   69.0    39    4.6   167     7.7    0.00 
 124   13:30   0.25   68.7    39    5.3   173     8.8    0.00 
 124   13:35   0.24   68.3    39    5.5   189     8.8    0.00 
 124   13:40   0.22   68.3    39    5.2   193     8.2    0.00 
 124   13:45   0.22   68.4    39    5.4   191    11.6    0.00 
 124   13:50   0.24   68.5    36    7.8   183    12.7    0.00 
 124   13:55   0.30   68.6    35    8.0   175    13.8    0.00 
 124   14:00   0.36   69.2    34    8.5   162    13.8    0.00 
 124   14:05   0.40   69.6    33    8.0   135    13.8    0.00 
 124   14:10   0.43   69.8    33    8.5   166    13.3    0.00 
 124   14:15   0.38   70.0    33    6.0   176    10.5    0.00 
 124   14:20   0.34   70.3    32    5.9   179     9.9    0.00 
 124   14:25   0.38   70.8    32    6.3   163    14.4    0.00 
 124   14:30   0.47   71.8    31    5.8   162     9.9    0.00 
 124   14:35   0.42   72.7    30    5.4   193     9.9    0.00 
 124   14:40   0.39   71.7    31    5.8   210    10.5    0.00 
 124   14:45   0.37   72.9    30    3.7    96     8.2    0.00 
 124   14:50   0.34   72.8    30    5.4   194    12.1    0.00 
 124   14:55   0.32   72.3    30    7.1   171    11.6    0.00 
 124   15:00   0.32   71.1    31    7.5   202    13.3    0.00 
 124   15:05   0.35   71.2    30    7.5   192    12.1    0.00 
 124   15:10   0.38   71.1    29    5.8   195     9.3    0.00 
 124   15:15   0.37   71.8    27    6.8   169    11.6    0.00 
 124   15:20   0.41   72.4    26    7.2   178    11.0    0.00 
 124   15:25   0.47   72.5    26    7.8   165    13.3    0.00 
 124   15:30   0.49   72.8    26    6.0   199    10.5    0.00 
 124   15:35   0.50   74.0    25    5.3   200     9.9    0.00 
 124   15:40   0.42   74.1    25    6.5   182    12.1    0.00 
 124   15:45   0.34   73.3    24    7.2   190    13.3    0.00 
 124   15:50   0.27   73.5    22    7.4   191    13.3    0.00 
 124   15:55   0.23   72.5    22    9.7   212    18.3    0.00 
 124   16:00   0.25   71.1    25    9.8   205    14.4    0.00 
 124   16:05   0.26   70.9    27    6.9   216    12.7    0.00 
 124   16:10   0.27   71.7    27    7.4   214    12.7    0.00 
 124   16:15   0.25   71.1    28    9.2   205    14.4    0.00 
 124   16:20   0.22   71.2    29    9.5   202    14.9    0.00 
 124   16:25   0.19   71.1    29    9.6   202    13.3    0.00 
 124   16:30   0.18   70.5    29   10.6   204    18.9    0.00 

Return to Weather Top graphs page.


Western Regional Climate Center,wrcc@dri.edu